sensor_id;sensor_type;location;lat;lon;timestamp;pressure;altitude;pressure_sealevel;temperature;humidity
76853;BME280;65825;52.232;10.566;2023-05-03T00:02:13;101966.34;;;4.45;74.08
76853;BME280;65825;52.232;10.566;2023-05-03T00:04:38;101970.66;;;4.42;74.46
76853;BME280;65825;52.232;10.566;2023-05-03T00:07:05;101979.38;;;4.41;74.22
76853;BME280;65825;52.232;10.566;2023-05-03T00:09:33;101982.78;;;4.37;74.28
76853;BME280;65825;52.232;10.566;2023-05-03T00:11:58;101977.50;;;4.34;75.17
76853;BME280;65825;52.232;10.566;2023-05-03T00:14:25;101969.66;;;4.34;74.70
76853;BME280;65825;52.232;10.566;2023-05-03T00:16:51;101970.44;;;4.27;75.00
76853;BME280;65825;52.232;10.566;2023-05-03T00:19:16;101963.44;;;4.24;75.25
76853;BME280;65825;52.232;10.566;2023-05-03T00:21:41;101965.22;;;4.27;75.10
76853;BME280;65825;52.232;10.566;2023-05-03T00:24:07;101969.47;;;4.20;76.06
76853;BME280;65825;52.232;10.566;2023-05-03T00:26:32;101969.34;;;4.13;75.40
76853;BME280;65825;52.232;10.566;2023-05-03T00:28:57;101962.25;;;4.01;75.63
76853;BME280;65825;52.232;10.566;2023-05-03T00:31:22;101973.44;;;3.94;76.65
76853;BME280;65825;52.232;10.566;2023-05-03T00:33:48;101972.56;;;3.94;76.94
76853;BME280;65825;52.232;10.566;2023-05-03T00:36:14;101972.47;;;3.89;77.05
76853;BME280;65825;52.232;10.566;2023-05-03T00:38:40;101963.56;;;3.77;77.21
76853;BME280;65825;52.232;10.566;2023-05-03T00:41:07;101969.41;;;3.61;78.09
76853;BME280;65825;52.232;10.566;2023-05-03T00:43:33;101964.16;;;3.59;78.06
76853;BME280;65825;52.232;10.566;2023-05-03T00:45:59;101968.34;;;3.50;79.15
76853;BME280;65825;52.232;10.566;2023-05-03T00:48:26;101973.53;;;3.48;79.34
76853;BME280;65825;52.232;10.566;2023-05-03T00:50:51;101967.25;;;3.37;80.34
76853;BME280;65825;52.232;10.566;2023-05-03T00:53:19;101961.09;;;3.34;80.62
76853;BME280;65825;52.232;10.566;2023-05-03T00:55:45;101961.88;;;3.30;80.22
76853;BME280;65825;52.232;10.566;2023-05-03T00:58:10;101961.78;;;3.24;80.70
76853;BME280;65825;52.232;10.566;2023-05-03T01:00:36;101960.03;;;3.23;81.00
76853;BME280;65825;52.232;10.566;2023-05-03T01:03:01;101967.78;;;3.18;81.65
76853;BME280;65825;52.232;10.566;2023-05-03T01:05:32;101958.19;;;3.17;81.41
76853;BME280;65825;52.232;10.566;2023-05-03T01:08:17;101970.31;;;3.15;81.31
76853;BME280;65825;52.232;10.566;2023-05-03T01:10:54;101982.31;;;3.06;82.53
76853;BME280;65825;52.232;10.566;2023-05-03T01:19:33;101974.09;;;2.85;81.93
76853;BME280;65825;52.232;10.566;2023-05-03T01:25:10;101972.44;;;2.91;82.13
76853;BME280;65825;52.232;10.566;2023-05-03T01:27:37;101976.53;;;2.79;82.01
76853;BME280;65825;52.232;10.566;2023-05-03T01:30:04;101981.72;;;2.76;81.80
76853;BME280;65825;52.232;10.566;2023-05-03T01:32:55;101980.78;;;2.72;81.35
76853;BME280;65825;52.232;10.566;2023-05-03T01:35:40;101981.56;;;2.68;82.75
76853;BME280;65825;52.232;10.566;2023-05-03T01:38:08;101985.88;;;2.68;83.09
76853;BME280;65825;52.232;10.566;2023-05-03T01:41:08;101988.50;;;2.68;82.97
76853;BME280;65825;52.232;10.566;2023-05-03T01:43:35;101990.13;;;2.61;83.24
76853;BME280;65825;52.232;10.566;2023-05-03T01:46:02;101993.44;;;2.56;83.50
76853;BME280;65825;52.232;10.566;2023-05-03T01:48:28;101988.25;;;2.56;82.93
76853;BME280;65825;52.232;10.566;2023-05-03T01:50:53;101986.19;;;2.43;83.49
76853;BME280;65825;52.232;10.566;2023-05-03T01:53:18;101989.75;;;2.45;82.69
76853;BME280;65825;52.232;10.566;2023-05-03T01:55:44;101983.47;;;2.35;83.20
76853;BME280;65825;52.232;10.566;2023-05-03T01:58:09;101983.34;;;2.31;83.82
76853;BME280;65825;52.232;10.566;2023-05-03T02:00:34;101987.44;;;2.20;84.28
76853;BME280;65825;52.232;10.566;2023-05-03T02:03:00;101992.56;;;2.17;83.98
76853;BME280;65825;52.232;10.566;2023-05-03T02:05:25;101987.22;;;2.09;84.35
76853;BME280;65825;52.232;10.566;2023-05-03T02:07:50;101984.63;;;2.11;84.52
76853;BME280;65825;52.232;10.566;2023-05-03T02:10:15;101990.75;;;2.13;84.13
76853;BME280;65825;52.232;10.566;2023-05-03T02:12:42;101991.47;;;2.07;84.05
76853;BME280;65825;52.232;10.566;2023-05-03T02:15:08;101997.44;;;2.02;84.22
76853;BME280;65825;52.232;10.566;2023-05-03T02:17:33;101999.91;;;1.97;84.05
76853;BME280;65825;52.232;10.566;2023-05-03T02:19:59;102003.28;;;1.93;83.93
76853;BME280;65825;52.232;10.566;2023-05-03T02:22:24;102008.41;;;1.89;84.79
76853;BME280;65825;52.232;10.566;2023-05-03T02:24:49;102007.63;;;1.93;84.14
76853;BME280;65825;52.232;10.566;2023-05-03T02:27:15;102007.69;;;1.94;83.88
76853;BME280;65825;52.232;10.566;2023-05-03T02:29:40;102011.94;;;1.92;84.41
76853;BME280;65825;52.232;10.566;2023-05-03T02:32:06;102010.09;;;1.88;84.79
76853;BME280;65825;52.232;10.566;2023-05-03T02:34:31;102013.56;;;1.87;85.41
76853;BME280;65825;52.232;10.566;2023-05-03T02:36:57;102007.38;;;1.82;85.84
76853;BME280;65825;52.232;10.566;2023-05-03T02:39:22;102004.81;;;1.84;84.56
76853;BME280;65825;52.232;10.566;2023-05-03T02:41:47;102003.94;;;1.85;85.23
76853;BME280;65825;52.232;10.566;2023-05-03T02:44:13;102002.09;;;1.81;85.07
76853;BME280;65825;52.232;10.566;2023-05-03T02:46:38;102007.50;;;1.87;84.81
76853;BME280;65825;52.232;10.566;2023-05-03T02:49:05;102012.41;;;1.76;86.32
76853;BME280;65825;52.232;10.566;2023-05-03T02:51:31;102008.81;;;1.71;86.66
76853;BME280;65825;52.232;10.566;2023-05-03T02:53:56;102009.63;;;1.69;86.46
76853;BME280;65825;52.232;10.566;2023-05-03T02:56:21;102012.16;;;1.66;86.34
76853;BME280;65825;52.232;10.566;2023-05-03T02:58:47;102013.59;;;1.55;87.09
76853;BME280;65825;52.232;10.566;2023-05-03T03:01:12;102015.47;;;1.60;86.73
76853;BME280;65825;52.232;10.566;2023-05-03T03:03:37;102014.72;;;1.64;86.00
76853;BME280;65825;52.232;10.566;2023-05-03T03:06:02;102013.69;;;1.58;85.91
76853;BME280;65825;52.232;10.566;2023-05-03T03:08:28;102004.09;;;1.55;85.66
76853;BME280;65825;52.232;10.566;2023-05-03T03:10:53;102015.34;;;1.54;86.86
76853;BME280;65825;52.232;10.566;2023-05-03T03:13:18;102006.56;;;1.51;87.70
76853;BME280;65825;52.232;10.566;2023-05-03T03:15:44;102002.97;;;1.46;88.29
76853;BME280;65825;52.232;10.566;2023-05-03T03:18:09;102006.47;;;1.48;87.61
76853;BME280;65825;52.232;10.566;2023-05-03T03:20:35;102014.38;;;1.51;87.53
76853;BME280;65825;52.232;10.566;2023-05-03T03:23:00;102024.63;;;1.45;87.16
76853;BME280;65825;52.232;10.566;2023-05-03T03:25:25;102020.97;;;1.38;87.08
76853;BME280;65825;52.232;10.566;2023-05-03T03:27:50;102020.13;;;1.39;87.56
76853;BME280;65825;52.232;10.566;2023-05-03T03:30:16;102022.63;;;1.35;87.40
76853;BME280;65825;52.232;10.566;2023-05-03T03:32:41;102025.13;;;1.32;87.27
76853;BME280;65825;52.232;10.566;2023-05-03T03:35:08;102036.44;;;1.32;86.60
76853;BME280;65825;52.232;10.566;2023-05-03T03:37:34;102039.00;;;1.31;87.03
76853;BME280;65825;52.232;10.566;2023-05-03T03:39:59;102032.03;;;1.31;86.75
76853;BME280;65825;52.232;10.566;2023-05-03T03:42:24;102038.03;;;1.29;86.37
76853;BME280;65825;52.232;10.566;2023-05-03T03:44:50;102041.59;;;1.31;87.02
76853;BME280;65825;52.232;10.566;2023-05-03T03:47:15;102038.09;;;1.30;86.75
76853;BME280;65825;52.232;10.566;2023-05-03T03:49:40;102040.59;;;1.26;88.34
76853;BME280;65825;52.232;10.566;2023-05-03T03:52:06;102043.13;;;1.24;89.09
76853;BME280;65825;52.232;10.566;2023-05-03T03:54:31;102040.44;;;1.21;89.13
76853;BME280;65825;52.232;10.566;2023-05-03T03:56:58;102041.44;;;1.26;88.34
76853;BME280;65825;52.232;10.566;2023-05-03T03:59:23;102046.84;;;1.34;88.24
76853;BME280;65825;52.232;10.566;2023-05-03T04:01:49;102048.06;;;1.46;88.61
76853;BME280;65825;52.232;10.566;2023-05-03T04:04:14;102044.81;;;1.53;88.57
76853;BME280;65825;52.232;10.566;2023-05-03T04:06:39;102046.00;;;1.66;88.29
76853;BME280;65825;52.232;10.566;2023-05-03T04:09:05;102042.91;;;1.80;87.91
76853;BME280;65825;52.232;10.566;2023-05-03T04:11:30;102044.91;;;1.90;87.48
76853;BME280;65825;52.232;10.566;2023-05-03T04:13:55;102044.22;;;1.99;87.08
76853;BME280;65825;52.232;10.566;2023-05-03T04:16:21;102047.13;;;2.09;86.92
76853;BME280;65825;52.232;10.566;2023-05-03T04:18:46;102039.97;;;2.02;87.05
76853;BME280;65825;52.232;10.566;2023-05-03T04:21:11;102051.47;;;2.10;86.62
76853;BME280;65825;52.232;10.566;2023-05-03T04:23:37;102048.72;;;2.06;86.96
76853;BME280;65825;52.232;10.566;2023-05-03T04:26:02;102054.75;;;2.03;86.67
76853;BME280;65825;52.232;10.566;2023-05-03T04:28:27;102049.53;;;2.03;86.87
76853;BME280;65825;52.232;10.566;2023-05-03T04:30:53;102043.53;;;2.06;87.23
76853;BME280;65825;52.232;10.566;2023-05-03T04:33:19;102059.34;;;2.13;86.38
76853;BME280;65825;52.232;10.566;2023-05-03T04:35:48;102057.44;;;2.06;87.41
76853;BME280;65825;52.232;10.566;2023-05-03T04:38:13;102049.53;;;2.03;87.24
76853;BME280;65825;52.232;10.566;2023-05-03T04:40:39;102053.94;;;2.06;88.06
76853;BME280;65825;52.232;10.566;2023-05-03T04:43:05;102062.78;;;2.12;87.38
76853;BME280;65825;52.232;10.566;2023-05-03T04:45:30;102056.88;;;2.18;87.15
76853;BME280;65825;52.232;10.566;2023-05-03T04:47:55;102057.00;;;2.24;86.68
76853;BME280;65825;52.232;10.566;2023-05-03T04:50:21;102058.66;;;2.22;86.17
76853;BME280;65825;52.232;10.566;2023-05-03T04:52:46;102053.50;;;2.23;85.46
76853;BME280;65825;52.232;10.566;2023-05-03T04:55:12;102056.19;;;2.26;86.37
76853;BME280;65825;52.232;10.566;2023-05-03T04:57:38;102052.06;;;2.36;86.56
76853;BME280;65825;52.232;10.566;2023-05-03T05:00:03;102059.25;;;2.46;86.19
76853;BME280;65825;52.232;10.566;2023-05-03T05:02:34;102058.44;;;2.48;86.44
76853;BME280;65825;52.232;10.566;2023-05-03T05:05:00;102063.91;;;2.59;86.86
76853;BME280;65825;52.232;10.566;2023-05-03T05:07:25;102057.03;;;2.62;86.44
76853;BME280;65825;52.232;10.566;2023-05-03T05:09:51;102060.75;;;2.73;86.55
76853;BME280;65825;52.232;10.566;2023-05-03T05:12:16;102062.75;;;2.85;86.41
76853;BME280;65825;52.232;10.566;2023-05-03T05:14:41;102067.31;;;2.95;86.65
76853;BME280;65825;52.232;10.566;2023-05-03T05:17:07;102066.53;;;3.00;86.50
76853;BME280;65825;52.232;10.566;2023-05-03T05:19:32;102073.63;;;3.07;86.06
76853;BME280;65825;52.232;10.566;2023-05-03T05:21:58;102073.94;;;3.22;85.82
76853;BME280;65825;52.232;10.566;2023-05-03T05:24:23;102072.38;;;3.30;85.32
76853;BME280;65825;52.232;10.566;2023-05-03T05:26:48;102074.34;;;3.42;85.66
76853;BME280;65825;52.232;10.566;2023-05-03T05:29:16;102079.88;;;3.58;84.93
76853;BME280;65825;52.232;10.566;2023-05-03T05:31:41;102075.72;;;3.68;84.80
76853;BME280;65825;52.232;10.566;2023-05-03T05:34:06;102092.47;;;3.79;84.40
76853;BME280;65825;52.232;10.566;2023-05-03T05:36:32;102077.06;;;3.94;83.29
76853;BME280;65825;52.232;10.566;2023-05-03T05:38:57;102083.22;;;3.97;83.21
76853;BME280;65825;52.232;10.566;2023-05-03T05:41:22;102078.22;;;4.11;82.32
76853;BME280;65825;52.232;10.566;2023-05-03T05:43:48;102085.34;;;4.21;82.48
76853;BME280;65825;52.232;10.566;2023-05-03T05:46:13;102084.59;;;4.28;82.68
76853;BME280;65825;52.232;10.566;2023-05-03T05:48:40;102090.94;;;4.43;82.04
76853;BME280;65825;52.232;10.566;2023-05-03T05:51:05;102090.16;;;4.47;81.71
76853;BME280;65825;52.232;10.566;2023-05-03T05:53:30;102100.78;;;4.59;81.44
76853;BME280;65825;52.232;10.566;2023-05-03T05:55:56;102097.38;;;4.66;80.67
76853;BME280;65825;52.232;10.566;2023-05-03T05:58:21;102100.19;;;4.80;79.93
76853;BME280;65825;52.232;10.566;2023-05-03T06:00:46;102102.94;;;4.89;79.89
76853;BME280;65825;52.232;10.566;2023-05-03T06:03:13;102099.59;;;4.99;79.29
76853;BME280;65825;52.232;10.566;2023-05-03T06:05:38;102107.66;;;5.14;78.70
76853;BME280;65825;52.232;10.566;2023-05-03T06:08:04;102100.75;;;5.22;78.62
76853;BME280;65825;52.232;10.566;2023-05-03T06:10:29;102099.16;;;5.34;78.31
76853;BME280;65825;52.232;10.566;2023-05-03T06:12:54;102105.38;;;5.42;77.91
76853;BME280;65825;52.232;10.566;2023-05-03T06:15:20;102108.06;;;5.48;76.82
76853;BME280;65825;52.232;10.566;2023-05-03T06:17:45;102108.25;;;5.63;77.25
76853;BME280;65825;52.232;10.566;2023-05-03T06:20:11;102110.94;;;5.69;76.77
76853;BME280;65825;52.232;10.566;2023-05-03T06:22:36;102105.84;;;5.83;75.82
76853;BME280;65825;52.232;10.566;2023-05-03T06:25:02;102106.00;;;5.98;75.43
76853;BME280;65825;52.232;10.566;2023-05-03T06:27:27;102114.81;;;6.07;74.61
76853;BME280;65825;52.232;10.566;2023-05-03T06:29:53;102114.06;;;6.17;74.47
76853;BME280;65825;52.232;10.566;2023-05-03T06:32:18;102115.03;;;6.30;74.20
76853;BME280;65825;52.232;10.566;2023-05-03T06:34:45;102122.19;;;6.47;73.74
76853;BME280;65825;52.232;10.566;2023-05-03T06:37:10;102116.16;;;6.59;72.96
76853;BME280;65825;52.232;10.566;2023-05-03T06:39:36;102117.13;;;6.74;72.52
76853;BME280;65825;52.232;10.566;2023-05-03T06:42:01;102112.84;;;6.90;71.02
76853;BME280;65825;52.232;10.566;2023-05-03T06:44:27;102108.59;;;7.08;69.40
76853;BME280;65825;52.232;10.566;2023-05-03T06:46:52;102111.31;;;7.29;69.76
76853;BME280;65825;52.232;10.566;2023-05-03T06:49:17;102113.97;;;7.43;67.91
76853;BME280;65825;52.232;10.566;2023-05-03T06:51:42;102112.28;;;7.60;66.71
76853;BME280;65825;52.232;10.566;2023-05-03T06:54:10;102108.00;;;8.01;65.56
76853;BME280;65825;52.232;10.566;2023-05-03T06:56:35;102104.53;;;8.47;64.94
76853;BME280;65825;52.232;10.566;2023-05-03T06:59:03;102104.47;;;8.98;63.24
76853;BME280;65825;52.232;10.566;2023-05-03T07:01:33;102100.75;;;9.53;60.25
76853;BME280;65825;52.232;10.566;2023-05-03T07:03:59;102103.84;;;10.19;57.43
76853;BME280;65825;52.232;10.566;2023-05-03T07:06:24;102104.94;;;10.94;52.91
76853;BME280;65825;52.232;10.566;2023-05-03T07:08:50;102097.88;;;11.67;50.82
76853;BME280;65825;52.232;10.566;2023-05-03T07:11:16;102103.00;;;12.35;51.21
76853;BME280;65825;52.232;10.566;2023-05-03T07:13:42;102100.31;;;12.88;50.99
76853;BME280;65825;52.232;10.566;2023-05-03T07:16:07;102099.19;;;13.45;50.23
76853;BME280;65825;52.232;10.566;2023-05-03T07:18:32;102097.50;;;14.20;47.54
76853;BME280;65825;52.232;10.566;2023-05-03T07:20:57;102097.66;;;14.82;44.82
76853;BME280;65825;52.232;10.566;2023-05-03T07:23:23;102101.97;;;15.18;44.23
76853;BME280;65825;52.232;10.566;2023-05-03T07:25:49;102100.81;;;14.96;43.93
76853;BME280;65825;52.232;10.566;2023-05-03T07:28:15;102094.38;;;15.05;44.46
76853;BME280;65825;52.232;10.566;2023-05-03T07:30:40;102102.06;;;15.15;40.99
76853;BME280;65825;52.232;10.566;2023-05-03T07:33:05;102103.03;;;14.79;41.09
76853;BME280;65825;52.232;10.566;2023-05-03T07:35:32;102094.63;;;14.64;42.77
76853;BME280;65825;52.232;10.566;2023-05-03T07:37:57;102093.31;;;14.45;39.57
76853;BME280;65825;52.232;10.566;2023-05-03T07:40:22;102088.84;;;14.47;40.89
76853;BME280;65825;52.232;10.566;2023-05-03T07:42:47;102088.00;;;14.45;41.14
76853;BME280;65825;52.232;10.566;2023-05-03T07:45:13;102090.41;;;14.19;41.71
76853;BME280;65825;52.232;10.566;2023-05-03T07:47:41;102090.34;;;14.22;42.86
76853;BME280;65825;52.232;10.566;2023-05-03T07:50:06;102097.50;;;14.20;42.56
76853;BME280;65825;52.232;10.566;2023-05-03T07:52:38;102088.72;;;14.15;41.98
76853;BME280;65825;52.232;10.566;2023-05-03T07:55:04;102089.34;;;14.27;41.71
76853;BME280;65825;52.232;10.566;2023-05-03T07:57:31;102083.72;;;14.39;39.87
76853;BME280;65825;52.232;10.566;2023-05-03T07:59:56;102083.78;;;16.47;36.93
76853;BME280;65825;52.232;10.566;2023-05-03T08:02:21;102087.50;;;15.88;36.68
76853;BME280;65825;52.232;10.566;2023-05-03T08:04:47;102079.91;;;16.02;38.34
76853;BME280;65825;52.232;10.566;2023-05-03T08:07:12;102077.66;;;16.45;37.25
76853;BME280;65825;52.232;10.566;2023-05-03T08:09:38;102081.06;;;16.21;38.03
76853;BME280;65825;52.232;10.566;2023-05-03T08:12:03;102075.59;;;15.98;38.23
76853;BME280;65825;52.232;10.566;2023-05-03T08:14:29;102081.38;;;16.12;37.59
76853;BME280;65825;52.232;10.566;2023-05-03T08:16:54;102071.44;;;17.87;32.13
76853;BME280;65825;52.232;10.566;2023-05-03T08:19:20;102079.47;;;17.87;34.16
76853;BME280;65825;52.232;10.566;2023-05-03T08:21:45;102072.47;;;17.38;33.82
76853;BME280;65825;52.232;10.566;2023-05-03T08:24:11;102079.38;;;17.67;32.76
76853;BME280;65825;52.232;10.566;2023-05-03T08:26:37;102080.66;;;18.01;32.84
76853;BME280;65825;52.232;10.566;2023-05-03T08:29:03;102074.03;;;17.19;33.15
76853;BME280;65825;52.232;10.566;2023-05-03T08:31:29;102079.19;;;25.05;24.88
76853;BME280;65825;52.232;10.566;2023-05-03T08:33:55;102077.84;;;20.03;30.21
76853;BME280;65825;52.232;10.566;2023-05-03T08:36:20;102079.78;;;18.22;33.90
76853;BME280;65825;52.232;10.566;2023-05-03T08:38:46;102083.16;;;17.14;34.94
76853;BME280;65825;52.232;10.566;2023-05-03T08:41:26;102087.41;;;16.44;35.68
76853;BME280;65825;52.232;10.566;2023-05-03T08:43:53;102077.19;;;15.76;35.26
76853;BME280;65825;52.232;10.566;2023-05-03T08:46:18;102079.66;;;16.09;36.88
76853;BME280;65825;52.232;10.566;2023-05-03T08:48:47;102081.63;;;16.30;37.64
76853;BME280;65825;52.232;10.566;2023-05-03T08:51:12;102094.38;;;16.74;36.67
76853;BME280;65825;52.232;10.566;2023-05-03T08:53:38;102086.50;;;26.50;23.63
76853;BME280;65825;52.232;10.566;2023-05-03T08:56:10;102078.06;;;26.19;23.24
76853;BME280;65825;52.232;10.566;2023-05-03T08:58:37;102087.78;;;22.33;25.98
76853;BME280;65825;52.232;10.566;2023-05-03T09:01:06;102079.41;;;21.12;27.69
76853;BME280;65825;52.232;10.566;2023-05-03T09:03:33;102094.88;;;22.65;25.63
76853;BME280;65825;52.232;10.566;2023-05-03T09:05:58;102081.97;;;24.52;22.55
76853;BME280;65825;52.232;10.566;2023-05-03T09:08:26;102086.09;;;21.85;26.14
76853;BME280;65825;52.232;10.566;2023-05-03T09:10:52;102087.16;;;21.01;27.96
76853;BME280;65825;52.232;10.566;2023-05-03T09:13:17;102084.91;;;20.58;28.56
76853;BME280;65825;52.232;10.566;2023-05-03T09:15:42;102086.09;;;20.35;28.32
76853;BME280;65825;52.232;10.566;2023-05-03T09:18:18;102081.25;;;20.94;29.20
76853;BME280;65825;52.232;10.566;2023-05-03T09:20:45;102086.69;;;20.93;27.89
76853;BME280;65825;52.232;10.566;2023-05-03T09:23:18;102081.50;;;22.93;25.60
76853;BME280;65825;52.232;10.566;2023-05-03T09:25:46;102082.31;;;25.49;23.26
76853;BME280;65825;52.232;10.566;2023-05-03T09:28:13;102087.72;;;25.62;21.70
76853;BME280;65825;52.232;10.566;2023-05-03T09:30:40;102093.38;;;28.02;18.78
76853;BME280;65825;52.232;10.566;2023-05-03T09:33:05;102083.41;;;24.43;21.65
76853;BME280;65825;52.232;10.566;2023-05-03T09:35:32;102084.00;;;25.27;21.43
76853;BME280;65825;52.232;10.566;2023-05-03T09:38:00;102080.34;;;23.41;23.83
76853;BME280;65825;52.232;10.566;2023-05-03T09:40:26;102087.66;;;22.05;26.14
76853;BME280;65825;52.232;10.566;2023-05-03T09:43:08;102088.19;;;20.98;28.35
76853;BME280;65825;52.232;10.566;2023-05-03T09:45:35;102090.72;;;20.32;28.94
76853;BME280;65825;52.232;10.566;2023-05-03T09:48:02;102098.53;;;19.44;29.52
76853;BME280;65825;52.232;10.566;2023-05-03T09:50:28;102093.72;;;19.89;29.21
76853;BME280;65825;52.232;10.566;2023-05-03T09:52:54;102082.84;;;20.29;28.45
76853;BME280;65825;52.232;10.566;2023-05-03T09:55:20;102100.03;;;26.50;22.40
76853;BME280;65825;52.232;10.566;2023-05-03T09:57:46;102095.00;;;34.80;13.51
76853;BME280;65825;52.232;10.566;2023-05-03T10:00:12;102074.88;;;34.55;12.38
76853;BME280;65825;52.232;10.566;2023-05-03T10:02:38;102067.34;;;25.94;20.25
76853;BME280;65825;52.232;10.566;2023-05-03T10:05:06;102086.34;;;34.01;13.14
76853;BME280;65825;52.232;10.566;2023-05-03T10:07:32;102092.03;;;39.35;9.37
76853;BME280;65825;52.232;10.566;2023-05-03T10:09:57;102098.91;;;42.65;7.09
76853;BME280;65825;52.232;10.566;2023-05-03T10:12:24;102084.44;;;44.16;5.96
76853;BME280;65825;52.232;10.566;2023-05-03T10:14:51;102091.47;;;44.77;6.46
76853;BME280;65825;52.232;10.566;2023-05-03T10:17:21;102088.03;;;45.16;6.18
76853;BME280;65825;52.232;10.566;2023-05-03T10:19:53;102083.66;;;46.57;5.84
76853;BME280;65825;52.232;10.566;2023-05-03T10:22:19;102078.63;;;47.03;5.40
76853;BME280;65825;52.232;10.566;2023-05-03T10:30:26;102065.09;;;44.91;5.40
76853;BME280;65825;52.232;10.566;2023-05-03T10:32:52;102052.66;;;44.35;5.40
76853;BME280;65825;52.232;10.566;2023-05-03T10:35:18;102051.53;;;45.75;5.13
76853;BME280;65825;52.232;10.566;2023-05-03T10:37:44;102058.47;;;46.12;4.42
76853;BME280;65825;52.232;10.566;2023-05-03T10:40:14;102066.97;;;46.45;4.52
76853;BME280;65825;52.232;10.566;2023-05-03T10:42:53;102057.72;;;46.45;4.95
76853;BME280;65825;52.232;10.566;2023-05-03T10:45:21;102051.91;;;48.53;5.26
76853;BME280;65825;52.232;10.566;2023-05-03T10:50:40;102051.88;;;49.57;3.76
76853;BME280;65825;52.232;10.566;2023-05-03T10:53:06;102046.19;;;48.74;4.09
76853;BME280;65825;52.232;10.566;2023-05-03T10:55:32;102046.44;;;48.68;4.10
76853;BME280;65825;52.232;10.566;2023-05-03T10:57:59;102047.06;;;48.22;4.48
76853;BME280;65825;52.232;10.566;2023-05-03T11:00:30;102049.97;;;48.32;3.92
76853;BME280;65825;52.232;10.566;2023-05-03T11:03:12;102038.97;;;47.06;4.47
76853;BME280;65825;52.232;10.566;2023-05-03T11:05:43;102031.91;;;46.71;4.99
76853;BME280;65825;52.232;10.566;2023-05-03T11:10:37;102024.84;;;45.10;5.34
76853;BME280;65825;52.232;10.566;2023-05-03T11:13:03;102025.78;;;45.62;5.01
76853;BME280;65825;52.232;10.566;2023-05-03T11:15:29;102026.25;;;44.08;5.33
76853;BME280;65825;52.232;10.566;2023-05-03T11:17:55;102014.25;;;44.37;6.62
76853;BME280;65825;52.232;10.566;2023-05-03T11:20:20;102018.97;;;44.66;6.38
76853;BME280;65825;52.232;10.566;2023-05-03T11:22:46;102012.06;;;44.27;5.59
76853;BME280;65825;52.232;10.566;2023-05-03T11:25:11;102005.44;;;44.40;6.21
76853;BME280;65825;52.232;10.566;2023-05-03T11:27:40;102009.34;;;45.26;5.51
76853;BME280;65825;52.232;10.566;2023-05-03T11:30:06;102013.03;;;45.77;5.12
76853;BME280;65825;52.232;10.566;2023-05-03T11:32:32;102010.56;;;45.18;5.67
76853;BME280;65825;52.232;10.566;2023-05-03T11:34:59;102011.13;;;45.55;5.11
76853;BME280;65825;52.232;10.566;2023-05-03T11:37:26;101997.84;;;45.85;4.37
76853;BME280;65825;52.232;10.566;2023-05-03T11:39:51;101987.63;;;45.05;5.01
76853;BME280;65825;52.232;10.566;2023-05-03T11:42:17;101997.44;;;46.21;4.77
76853;BME280;65825;52.232;10.566;2023-05-03T11:44:43;101993.94;;;47.24;4.76
76853;BME280;65825;52.232;10.566;2023-05-03T11:47:08;101987.81;;;47.44;4.91
76853;BME280;65825;52.232;10.566;2023-05-03T11:49:33;101982.72;;;47.62;4.35
76853;BME280;65825;52.232;10.566;2023-05-03T11:51:59;101985.19;;;48.02;4.63
76853;BME280;65825;52.232;10.566;2023-05-03T11:54:24;101983.53;;;48.32;4.29
76853;BME280;65825;52.232;10.566;2023-05-03T11:56:54;101977.13;;;47.84;4.15
76853;BME280;65825;52.232;10.566;2023-05-03T11:59:19;101980.91;;;47.13;4.25
76853;BME280;65825;52.232;10.566;2023-05-03T12:01:45;101969.50;;;47.58;3.65
76853;BME280;65825;52.232;10.566;2023-05-03T12:04:13;101967.28;;;47.00;4.72
76853;BME280;65825;52.232;10.566;2023-05-03T12:06:38;101974.75;;;46.34;4.94
76853;BME280;65825;52.232;10.566;2023-05-03T12:09:12;101966.34;;;47.33;3.92
76853;BME280;65825;52.232;10.566;2023-05-03T12:11:41;101965.06;;;46.69;4.08
76853;BME280;65825;52.232;10.566;2023-05-03T12:14:07;101962.19;;;46.48;3.99
76853;BME280;65825;52.232;10.566;2023-05-03T12:16:46;101964.84;;;46.26;3.90
76853;BME280;65825;52.232;10.566;2023-05-03T12:19:24;101954.25;;;46.12;5.21
76853;BME280;65825;52.232;10.566;2023-05-03T12:21:49;101965.00;;;46.48;4.81
76853;BME280;65825;52.232;10.566;2023-05-03T12:24:15;101957.88;;;46.40;4.32
76853;BME280;65825;52.232;10.566;2023-05-03T12:26:46;101942.94;;;45.51;4.16
76853;BME280;65825;52.232;10.566;2023-05-03T12:29:11;101943.50;;;44.67;5.63
76853;BME280;65825;52.232;10.566;2023-05-03T12:31:37;101940.72;;;43.85;6.13
76853;BME280;65825;52.232;10.566;2023-05-03T12:34:03;101931.47;;;43.01;5.61
76853;BME280;65825;52.232;10.566;2023-05-03T12:36:29;101932.69;;;43.05;5.67
76853;BME280;65825;52.232;10.566;2023-05-03T12:38:56;101929.22;;;43.93;5.60
76853;BME280;65825;52.232;10.566;2023-05-03T12:41:22;101926.47;;;44.46;5.63
76853;BME280;65825;52.232;10.566;2023-05-03T12:43:49;101930.63;;;44.78;5.37
76853;BME280;65825;52.232;10.566;2023-05-03T12:46:14;101920.94;;;45.66;5.55
76853;BME280;65825;52.232;10.566;2023-05-03T12:48:40;101930.97;;;46.23;4.59
76853;BME280;65825;52.232;10.566;2023-05-03T12:51:05;101935.25;;;45.97;5.76
76853;BME280;65825;52.232;10.566;2023-05-03T12:53:30;101926.81;;;44.38;5.34
76853;BME280;65825;52.232;10.566;2023-05-03T12:55:56;101912.94;;;43.49;5.63
76853;BME280;65825;52.232;10.566;2023-05-03T12:58:21;101908.84;;;42.48;5.75
76853;BME280;65825;52.232;10.566;2023-05-03T13:00:46;101901.34;;;42.24;7.13
76853;BME280;65825;52.232;10.566;2023-05-03T13:03:13;101891.94;;;40.87;6.78
76853;BME280;65825;52.232;10.566;2023-05-03T13:05:39;101885.53;;;41.12;7.67